sensor_id;sensor_type;location;lat;lon;timestamp;temperature;humidity
25360;DHT22;13311;51.386;0.016;2023-01-15T00:02:13;10.00;96.30
25360;DHT22;13311;51.386;0.016;2023-01-15T00:07:16;10.10;97.20
25360;DHT22;13311;51.386;0.016;2023-01-15T00:12:17;10.10;96.90
25360;DHT22;13311;51.386;0.016;2023-01-15T00:17:17;10.30;97.30
25360;DHT22;13311;51.386;0.016;2023-01-15T00:22:18;10.30;97.40
25360;DHT22;13311;51.386;0.016;2023-01-15T00:27:19;10.10;95.80
25360;DHT22;13311;51.386;0.016;2023-01-15T00:32:39;10.10;95.80
25360;DHT22;13311;51.386;0.016;2023-01-15T00:37:40;10.10;96.20
25360;DHT22;13311;51.386;0.016;2023-01-15T00:42:41;10.00;96.20
25360;DHT22;13311;51.386;0.016;2023-01-15T00:47:43;10.10;98.00
25360;DHT22;13311;51.386;0.016;2023-01-15T00:52:47;10.00;96.90
25360;DHT22;13311;51.386;0.016;2023-01-15T00:57:48;9.90;95.50
25360;DHT22;13311;51.386;0.016;2023-01-15T01:02:48;9.80;96.60
25360;DHT22;13311;51.386;0.016;2023-01-15T01:07:49;10.00;97.40
25360;DHT22;13311;51.386;0.016;2023-01-15T01:12:50;9.90;95.90
25360;DHT22;13311;51.386;0.016;2023-01-15T01:17:52;9.80;96.70
25360;DHT22;13311;51.386;0.016;2023-01-15T01:22:53;9.80;96.70
25360;DHT22;13311;51.386;0.016;2023-01-15T01:27:54;9.70;96.50
25360;DHT22;13311;51.386;0.016;2023-01-15T01:32:54;9.60;95.80
25360;DHT22;13311;51.386;0.016;2023-01-15T01:37:55;9.60;96.30
25360;DHT22;13311;51.386;0.016;2023-01-15T01:42:56;9.50;95.80
25360;DHT22;13311;51.386;0.016;2023-01-15T01:48:01;9.60;96.00
25360;DHT22;13311;51.386;0.016;2023-01-15T01:53:15;9.40;95.30
25360;DHT22;13311;51.386;0.016;2023-01-15T01:58:19;9.60;96.70
25360;DHT22;13311;51.386;0.016;2023-01-15T02:03:24;9.60;97.60
25360;DHT22;13311;51.386;0.016;2023-01-15T02:08:26;9.40;95.70
25360;DHT22;13311;51.386;0.016;2023-01-15T02:13:38;9.40;96.50
25360;DHT22;13311;51.386;0.016;2023-01-15T02:24:06;9.40;96.60
25360;DHT22;13311;51.386;0.016;2023-01-15T02:29:14;9.40;97.80
25360;DHT22;13311;51.386;0.016;2023-01-15T02:34:27;9.30;96.90
25360;DHT22;13311;51.386;0.016;2023-01-15T02:39:30;9.30;97.50
25360;DHT22;13311;51.386;0.016;2023-01-15T02:44:33;9.30;96.80
25360;DHT22;13311;51.386;0.016;2023-01-15T02:49:37;9.30;96.70
25360;DHT22;13311;51.386;0.016;2023-01-15T02:54:47;9.10;96.70
25360;DHT22;13311;51.386;0.016;2023-01-15T02:59:51;9.20;97.40
25360;DHT22;13311;51.386;0.016;2023-01-15T03:05:05;9.00;96.30
25360;DHT22;13311;51.386;0.016;2023-01-15T03:10:10;9.10;98.90
25360;DHT22;13311;51.386;0.016;2023-01-15T03:15:15;9.00;96.10
25360;DHT22;13311;51.386;0.016;2023-01-15T03:20:50;8.90;96.20
25360;DHT22;13311;51.386;0.016;2023-01-15T03:25:52;8.80;95.30
25360;DHT22;13311;51.386;0.016;2023-01-15T03:30:52;8.90;97.00
25360;DHT22;13311;51.386;0.016;2023-01-15T03:35:59;8.70;95.80
25360;DHT22;13311;51.386;0.016;2023-01-15T03:52:05;8.50;95.20
25360;DHT22;13311;51.386;0.016;2023-01-15T04:02:29;8.50;95.30
25360;DHT22;13311;51.386;0.016;2023-01-15T04:07:30;8.50;97.70
25360;DHT22;13311;51.386;0.016;2023-01-15T04:12:32;8.50;96.60
25360;DHT22;13311;51.386;0.016;2023-01-15T04:17:33;8.50;96.20
25360;DHT22;13311;51.386;0.016;2023-01-15T04:22:35;8.50;95.70
25360;DHT22;13311;51.386;0.016;2023-01-15T04:27:36;8.60;95.70
25360;DHT22;13311;51.386;0.016;2023-01-15T04:32:37;8.40;96.50
25360;DHT22;13311;51.386;0.016;2023-01-15T04:37:38;8.60;96.70
25360;DHT22;13311;51.386;0.016;2023-01-15T04:42:38;8.60;96.60
25360;DHT22;13311;51.386;0.016;2023-01-15T04:47:58;8.60;96.60
25360;DHT22;13311;51.386;0.016;2023-01-15T04:52:58;8.70;98.30
25360;DHT22;13311;51.386;0.016;2023-01-15T04:57:59;8.70;96.40
25360;DHT22;13311;51.386;0.016;2023-01-15T05:03:00;8.70;97.30
25360;DHT22;13311;51.386;0.016;2023-01-15T05:08:00;8.70;96.40
25360;DHT22;13311;51.386;0.016;2023-01-15T05:13:01;8.60;96.80
25360;DHT22;13311;51.386;0.016;2023-01-15T05:18:02;8.50;96.50
25360;DHT22;13311;51.386;0.016;2023-01-15T05:23:03;8.50;97.10
25360;DHT22;13311;51.386;0.016;2023-01-15T05:28:04;8.30;95.80
25360;DHT22;13311;51.386;0.016;2023-01-15T05:33:05;8.40;96.30
25360;DHT22;13311;51.386;0.016;2023-01-15T05:38:05;8.40;98.10
25360;DHT22;13311;51.386;0.016;2023-01-15T05:43:06;8.30;96.30
25360;DHT22;13311;51.386;0.016;2023-01-15T05:48:07;8.30;96.10
25360;DHT22;13311;51.386;0.016;2023-01-15T05:53:08;8.40;96.60
25360;DHT22;13311;51.386;0.016;2023-01-15T05:58:08;8.40;97.50
25360;DHT22;13311;51.386;0.016;2023-01-15T06:03:09;8.50;96.70
25360;DHT22;13311;51.386;0.016;2023-01-15T06:08:10;8.50;96.50
25360;DHT22;13311;51.386;0.016;2023-01-15T06:13:10;8.50;96.70
25360;DHT22;13311;51.386;0.016;2023-01-15T06:18:12;8.50;96.10
25360;DHT22;13311;51.386;0.016;2023-01-15T06:23:12;8.50;96.00
25360;DHT22;13311;51.386;0.016;2023-01-15T06:28:13;8.50;96.60
25360;DHT22;13311;51.386;0.016;2023-01-15T06:33:14;8.50;96.00
25360;DHT22;13311;51.386;0.016;2023-01-15T06:38:15;8.60;97.00
25360;DHT22;13311;51.386;0.016;2023-01-15T06:43:15;8.70;96.70
25360;DHT22;13311;51.386;0.016;2023-01-15T06:48:35;8.70;96.80
25360;DHT22;13311;51.386;0.016;2023-01-15T06:53:35;8.80;97.20
25360;DHT22;13311;51.386;0.016;2023-01-15T06:58:41;8.80;96.20
25360;DHT22;13311;51.386;0.016;2023-01-15T07:03:42;8.70;97.00
25360;DHT22;13311;51.386;0.016;2023-01-15T07:08:43;8.70;96.60
25360;DHT22;13311;51.386;0.016;2023-01-15T07:13:43;8.50;96.70
25360;DHT22;13311;51.386;0.016;2023-01-15T07:18:45;8.40;96.70
25360;DHT22;13311;51.386;0.016;2023-01-15T07:23:46;8.30;96.20
25360;DHT22;13311;51.386;0.016;2023-01-15T07:28:46;8.30;96.90
25360;DHT22;13311;51.386;0.016;2023-01-15T07:33:47;8.40;96.40
25360;DHT22;13311;51.386;0.016;2023-01-15T07:38:48;8.30;96.60
25360;DHT22;13311;51.386;0.016;2023-01-15T07:43:49;8.30;96.40
25360;DHT22;13311;51.386;0.016;2023-01-15T07:49:09;8.30;96.20
25360;DHT22;13311;51.386;0.016;2023-01-15T07:54:29;8.20;96.00
25360;DHT22;13311;51.386;0.016;2023-01-15T07:59:30;8.30;96.90
25360;DHT22;13311;51.386;0.016;2023-01-15T08:04:31;8.30;97.30
25360;DHT22;13311;51.386;0.016;2023-01-15T08:09:31;8.30;96.80
25360;DHT22;13311;51.386;0.016;2023-01-15T08:14:32;8.40;96.80
25360;DHT22;13311;51.386;0.016;2023-01-15T08:19:52;8.50;97.90
25360;DHT22;13311;51.386;0.016;2023-01-15T08:24:52;8.50;96.60
25360;DHT22;13311;51.386;0.016;2023-01-15T08:29:53;8.70;97.00
25360;DHT22;13311;51.386;0.016;2023-01-15T08:34:54;8.70;97.70
25360;DHT22;13311;51.386;0.016;2023-01-15T08:39:55;8.80;97.30
25360;DHT22;13311;51.386;0.016;2023-01-15T08:44:56;8.90;97.20
25360;DHT22;13311;51.386;0.016;2023-01-15T08:49:57;8.80;96.70
25360;DHT22;13311;51.386;0.016;2023-01-15T08:54:58;8.80;97.20
25360;DHT22;13311;51.386;0.016;2023-01-15T08:59:59;8.80;97.20
25360;DHT22;13311;51.386;0.016;2023-01-15T09:04:59;9.00;97.00
25360;DHT22;13311;51.386;0.016;2023-01-15T09:10:00;9.00;97.50
25360;DHT22;13311;51.386;0.016;2023-01-15T09:15:01;9.10;97.30
25360;DHT22;13311;51.386;0.016;2023-01-15T09:20:01;9.20;96.80
25360;DHT22;13311;51.386;0.016;2023-01-15T09:25:03;9.30;97.50
25360;DHT22;13311;51.386;0.016;2023-01-15T09:30:04;9.40;96.40
25360;DHT22;13311;51.386;0.016;2023-01-15T09:35:06;9.60;97.40
25360;DHT22;13311;51.386;0.016;2023-01-15T09:45:46;10.00;96.80
25360;DHT22;13311;51.386;0.016;2023-01-15T09:56:48;10.20;96.30
25360;DHT22;13311;51.386;0.016;2023-01-15T10:01:50;10.30;96.60
25360;DHT22;13311;51.386;0.016;2023-01-15T10:07:17;10.30;95.90
25360;DHT22;13311;51.386;0.016;2023-01-15T10:12:43;10.20;95.40
25360;DHT22;13311;51.386;0.016;2023-01-15T10:18:14;10.30;96.10
25360;DHT22;13311;51.386;0.016;2023-01-15T10:28:58;10.60;96.20
25360;DHT22;13311;51.386;0.016;2023-01-15T10:34:31;10.80;96.60
25360;DHT22;13311;51.386;0.016;2023-01-15T10:45:39;11.00;95.20
25360;DHT22;13311;51.386;0.016;2023-01-15T10:50:50;10.90;95.60
25360;DHT22;13311;51.386;0.016;2023-01-15T10:56:04;11.00;95.40
25360;DHT22;13311;51.386;0.016;2023-01-15T11:01:12;11.10;96.20
25360;DHT22;13311;51.386;0.016;2023-01-15T11:06:18;11.10;95.00
25360;DHT22;13311;51.386;0.016;2023-01-15T11:11:41;11.20;95.60
25360;DHT22;13311;51.386;0.016;2023-01-15T11:16:59;11.40;95.20
25360;DHT22;13311;51.386;0.016;2023-01-15T11:22:11;11.50;95.10
25360;DHT22;13311;51.386;0.016;2023-01-15T11:27:19;11.50;95.90
25360;DHT22;13311;51.386;0.016;2023-01-15T11:32:36;11.60;94.90
25360;DHT22;13311;51.386;0.016;2023-01-15T11:37:37;11.80;95.80
25360;DHT22;13311;51.386;0.016;2023-01-15T11:42:45;11.80;94.80
25360;DHT22;13311;51.386;0.016;2023-01-15T11:48:15;11.80;94.60
25360;DHT22;13311;51.386;0.016;2023-01-15T11:53:45;11.70;94.50
25360;DHT22;13311;51.386;0.016;2023-01-15T11:58:50;11.60;94.80
25360;DHT22;13311;51.386;0.016;2023-01-15T12:03:54;11.60;95.50
25360;DHT22;13311;51.386;0.016;2023-01-15T12:14:40;11.70;95.60
25360;DHT22;13311;51.386;0.016;2023-01-15T12:31:26;11.70;96.00
25360;DHT22;13311;51.386;0.016;2023-01-15T12:36:52;11.70;95.40
25360;DHT22;13311;51.386;0.016;2023-01-15T12:42:01;11.70;94.40
25360;DHT22;13311;51.386;0.016;2023-01-15T12:47:43;11.70;95.70
25360;DHT22;13311;51.386;0.016;2023-01-15T13:04:02;11.90;94.40
25360;DHT22;13311;51.386;0.016;2023-01-15T13:09:17;12.00;94.30
25360;DHT22;13311;51.386;0.016;2023-01-15T13:14:39;12.00;94.20
25360;DHT22;13311;51.386;0.016;2023-01-15T13:20:12;12.00;94.20
25360;DHT22;13311;51.386;0.016;2023-01-15T13:36:31;11.90;93.00
25360;DHT22;13311;51.386;0.016;2023-01-15T13:41:34;12.00;93.00
25360;DHT22;13311;51.386;0.016;2023-01-15T13:47:03;12.00;93.30
25360;DHT22;13311;51.386;0.016;2023-01-15T13:52:07;12.00;94.10
25360;DHT22;13311;51.386;0.016;2023-01-15T13:57:35;12.00;95.20
25360;DHT22;13311;51.386;0.016;2023-01-15T14:02:38;11.90;91.70
25360;DHT22;13311;51.386;0.016;2023-01-15T14:07:40;11.70;92.90
25360;DHT22;13311;51.386;0.016;2023-01-15T14:18:03;11.60;91.50
25360;DHT22;13311;51.386;0.016;2023-01-15T14:28:47;11.50;91.50
25360;DHT22;13311;51.386;0.016;2023-01-15T14:44:40;11.50;91.60
25360;DHT22;13311;51.386;0.016;2023-01-15T14:49:44;11.20;91.00
25360;DHT22;13311;51.386;0.016;2023-01-15T14:54:49;11.00;90.90
25360;DHT22;13311;51.386;0.016;2023-01-15T14:59:57;10.70;91.20
25360;DHT22;13311;51.386;0.016;2023-01-15T15:05:00;10.60;91.40
25360;DHT22;13311;51.386;0.016;2023-01-15T15:10:19;10.50;91.80
25360;DHT22;13311;51.386;0.016;2023-01-15T15:21:23;10.50;92.20
25360;DHT22;13311;51.386;0.016;2023-01-15T15:31:33;10.50;92.00
25360;DHT22;13311;51.386;0.016;2023-01-15T15:36:35;10.50;92.40
25360;DHT22;13311;51.386;0.016;2023-01-15T15:41:40;10.50;91.90
25360;DHT22;13311;51.386;0.016;2023-01-15T15:47:20;10.40;91.70
25360;DHT22;13311;51.386;0.016;2023-01-15T15:52:43;10.30;92.00
25360;DHT22;13311;51.386;0.016;2023-01-15T15:57:55;10.30;91.90
25360;DHT22;13311;51.386;0.016;2023-01-15T16:03:19;10.10;92.10
25360;DHT22;13311;51.386;0.016;2023-01-15T16:08:22;9.90;92.30
25360;DHT22;13311;51.386;0.016;2023-01-15T16:13:33;9.80;92.60
25360;DHT22;13311;51.386;0.016;2023-01-15T16:18:38;9.60;92.90
25360;DHT22;13311;51.386;0.016;2023-01-15T16:23:55;9.60;93.10
25360;DHT22;13311;51.386;0.016;2023-01-15T16:29:04;9.50;93.20
25360;DHT22;13311;51.386;0.016;2023-01-15T16:34:10;9.30;93.40
25360;DHT22;13311;51.386;0.016;2023-01-15T16:39:38;9.20;93.60
25360;DHT22;13311;51.386;0.016;2023-01-15T16:44:44;9.10;94.00
25360;DHT22;13311;51.386;0.016;2023-01-15T16:49:51;9.00;94.00
25360;DHT22;13311;51.386;0.016;2023-01-15T16:54:52;9.00;94.30
25360;DHT22;13311;51.386;0.016;2023-01-15T16:59:58;9.00;94.50
25360;DHT22;13311;51.386;0.016;2023-01-15T17:05:13;9.00;94.60
25360;DHT22;13311;51.386;0.016;2023-01-15T17:10:26;8.90;94.70
25360;DHT22;13311;51.386;0.016;2023-01-15T17:15:29;8.80;95.00
25360;DHT22;13311;51.386;0.016;2023-01-15T17:20:36;8.70;95.10
25360;DHT22;13311;51.386;0.016;2023-01-15T17:25:36;8.60;95.20
25360;DHT22;13311;51.386;0.016;2023-01-15T17:30:37;8.60;95.40
25360;DHT22;13311;51.386;0.016;2023-01-15T17:35:39;8.50;95.50
25360;DHT22;13311;51.386;0.016;2023-01-15T17:40:41;8.40;95.70
25360;DHT22;13311;51.386;0.016;2023-01-15T17:45:42;8.30;95.90
25360;DHT22;13311;51.386;0.016;2023-01-15T17:50:43;8.30;96.10
25360;DHT22;13311;51.386;0.016;2023-01-15T17:55:44;8.20;96.20
25360;DHT22;13311;51.386;0.016;2023-01-15T18:01:11;8.20;96.30
25360;DHT22;13311;51.386;0.016;2023-01-15T18:06:33;8.10;96.40
25360;DHT22;13311;51.386;0.016;2023-01-15T18:11:35;8.10;96.50
25360;DHT22;13311;51.386;0.016;2023-01-15T18:16:35;8.10;96.60
25360;DHT22;13311;51.386;0.016;2023-01-15T18:21:40;8.20;96.90
25360;DHT22;13311;51.386;0.016;2023-01-15T18:26:41;8.30;96.60
25360;DHT22;13311;51.386;0.016;2023-01-15T18:31:43;8.30;96.60
25360;DHT22;13311;51.386;0.016;2023-01-15T18:36:44;8.30;97.00
25360;DHT22;13311;51.386;0.016;2023-01-15T18:41:45;8.30;96.80
25360;DHT22;13311;51.386;0.016;2023-01-15T18:46:49;8.30;96.90
25360;DHT22;13311;51.386;0.016;2023-01-15T18:51:54;8.30;96.90
25360;DHT22;13311;51.386;0.016;2023-01-15T18:57:13;8.20;97.00
25360;DHT22;13311;51.386;0.016;2023-01-15T19:02:17;8.30;97.20
25360;DHT22;13311;51.386;0.016;2023-01-15T19:07:18;8.30;97.20
25360;DHT22;13311;51.386;0.016;2023-01-15T19:12:19;8.50;97.10
25360;DHT22;13311;51.386;0.016;2023-01-15T19:17:22;8.40;96.90
25360;DHT22;13311;51.386;0.016;2023-01-15T19:22:45;8.30;96.90
25360;DHT22;13311;51.386;0.016;2023-01-15T19:27:59;8.20;97.10
25360;DHT22;13311;51.386;0.016;2023-01-15T19:33:00;8.10;97.20
25360;DHT22;13311;51.386;0.016;2023-01-15T19:38:01;8.00;97.40
25360;DHT22;13311;51.386;0.016;2023-01-15T19:43:02;8.00;97.40
25360;DHT22;13311;51.386;0.016;2023-01-15T19:48:21;7.90;97.80
25360;DHT22;13311;51.386;0.016;2023-01-15T19:53:43;7.70;98.10
25360;DHT22;13311;51.386;0.016;2023-01-15T19:58:44;7.70;98.20
25360;DHT22;13311;51.386;0.016;2023-01-15T20:03:45;7.70;98.40
25360;DHT22;13311;51.386;0.016;2023-01-15T20:08:45;7.60;98.50
25360;DHT22;13311;51.386;0.016;2023-01-15T20:13:46;7.50;98.90
25360;DHT22;13311;51.386;0.016;2023-01-15T20:18:52;7.40;99.10
25360;DHT22;13311;51.386;0.016;2023-01-15T20:23:54;7.30;99.30
25360;DHT22;13311;51.386;0.016;2023-01-15T20:28:55;7.30;99.50
25360;DHT22;13311;51.386;0.016;2023-01-15T20:33:56;7.30;99.70
25360;DHT22;13311;51.386;0.016;2023-01-15T20:39:01;7.20;99.90
25360;DHT22;13311;51.386;0.016;2023-01-15T20:44:02;7.20;99.90
25360;DHT22;13311;51.386;0.016;2023-01-15T20:49:21;7.10;99.90
25360;DHT22;13311;51.386;0.016;2023-01-15T20:54:26;7.00;99.90
25360;DHT22;13311;51.386;0.016;2023-01-15T20:59:27;7.00;99.90
25360;DHT22;13311;51.386;0.016;2023-01-15T21:04:28;7.00;99.90
25360;DHT22;13311;51.386;0.016;2023-01-15T21:09:30;7.00;99.90
25360;DHT22;13311;51.386;0.016;2023-01-15T21:14:30;6.90;99.90
25360;DHT22;13311;51.386;0.016;2023-01-15T21:19:31;6.90;99.90
25360;DHT22;13311;51.386;0.016;2023-01-15T21:24:32;6.80;99.90
25360;DHT22;13311;51.386;0.016;2023-01-15T21:29:33;6.70;99.90
25360;DHT22;13311;51.386;0.016;2023-01-15T21:34:34;6.60;99.90
25360;DHT22;13311;51.386;0.016;2023-01-15T21:39:34;6.60;99.90
25360;DHT22;13311;51.386;0.016;2023-01-15T21:44:37;6.60;99.90
25360;DHT22;13311;51.386;0.016;2023-01-15T21:49:42;6.70;99.90
25360;DHT22;13311;51.386;0.016;2023-01-15T21:54:45;6.70;99.90
25360;DHT22;13311;51.386;0.016;2023-01-15T21:59:47;6.80;99.90
25360;DHT22;13311;51.386;0.016;2023-01-15T22:04:48;6.80;99.90
25360;DHT22;13311;51.386;0.016;2023-01-15T22:09:49;6.90;99.90
25360;DHT22;13311;51.386;0.016;2023-01-15T22:14:50;6.90;99.90
25360;DHT22;13311;51.386;0.016;2023-01-15T22:19:53;6.90;99.90
25360;DHT22;13311;51.386;0.016;2023-01-15T22:24:54;6.90;99.90
25360;DHT22;13311;51.386;0.016;2023-01-15T22:29:56;7.00;99.90
25360;DHT22;13311;51.386;0.016;2023-01-15T22:34:56;7.00;99.90
25360;DHT22;13311;51.386;0.016;2023-01-15T22:39:57;7.00;99.90
25360;DHT22;13311;51.386;0.016;2023-01-15T22:44:58;7.00;99.90
25360;DHT22;13311;51.386;0.016;2023-01-15T22:49:59;7.10;99.90
25360;DHT22;13311;51.386;0.016;2023-01-15T22:55:00;7.10;99.90
25360;DHT22;13311;51.386;0.016;2023-01-15T23:00:01;7.00;99.90
25360;DHT22;13311;51.386;0.016;2023-01-15T23:05:04;7.00;99.90
25360;DHT22;13311;51.386;0.016;2023-01-15T23:10:07;7.10;99.90
25360;DHT22;13311;51.386;0.016;2023-01-15T23:15:11;7.10;99.90
25360;DHT22;13311;51.386;0.016;2023-01-15T23:20:13;7.10;99.90
25360;DHT22;13311;51.386;0.016;2023-01-15T23:25:14;7.10;99.90
25360;DHT22;13311;51.386;0.016;2023-01-15T23:30:15;7.00;99.90
25360;DHT22;13311;51.386;0.016;2023-01-15T23:35:16;7.00;99.90
25360;DHT22;13311;51.386;0.016;2023-01-15T23:40:17;6.90;99.90
25360;DHT22;13311;51.386;0.016;2023-01-15T23:45:18;6.80;99.90
25360;DHT22;13311;51.386;0.016;2023-01-15T23:50:37;6.80;99.90
25360;DHT22;13311;51.386;0.016;2023-01-15T23:55:39;6.80;99.90
